createdAt,value
2019-04-20T00:01:16.852Z,12.47
2019-04-20T00:03:45.038Z,13.93
2019-04-20T00:06:15.365Z,12.73
2019-04-20T00:08:47.358Z,11.07
2019-04-20T00:11:25.753Z,11.50
2019-04-20T00:13:59.442Z,12.70
2019-04-20T00:16:23.092Z,12.00
2019-04-20T00:18:57.302Z,10.83
2019-04-20T00:21:47.345Z,10.07
2019-04-20T00:24:23.382Z,11.50
2019-04-20T00:27:19.343Z,10.80
2019-04-20T00:29:39.311Z,9.73
2019-04-20T00:32:06.257Z,11.13
2019-04-20T00:34:33.250Z,10.50
2019-04-20T00:37:00.165Z,11.03
2019-04-20T00:39:31.902Z,9.40
2019-04-20T00:42:06.709Z,10.37
2019-04-20T00:44:38.085Z,10.70
2019-04-20T00:47:16.912Z,9.50
2019-04-20T00:49:55.087Z,8.87
2019-04-20T00:52:29.084Z,11.30
2019-04-20T00:54:43.194Z,9.80
2019-04-20T00:57:25.893Z,10.43
2019-04-20T01:00:05.006Z,10.87
2019-04-20T01:02:32.376Z,9.70
2019-04-20T01:05:04.008Z,9.07
2019-04-20T01:07:43.214Z,10.23
2019-04-20T01:10:11.120Z,9.37
2019-04-20T01:12:43.738Z,11.30
2019-04-20T01:15:24.462Z,11.27
2019-04-20T01:17:45.660Z,10.50
2019-04-20T01:20:16.230Z,10.00
2019-04-20T01:22:55.990Z,12.37
2019-04-20T01:25:28.486Z,9.50
2019-04-20T01:28:09.075Z,9.77
2019-04-20T01:30:32.221Z,10.93
2019-04-20T01:33:12.468Z,10.87
2019-04-20T01:35:48.136Z,11.20
2019-04-20T01:38:16.878Z,9.90
2019-04-20T01:40:33.631Z,9.53
2019-04-20T01:43:05.568Z,11.07
2019-04-20T01:45:39.161Z,10.53
2019-04-20T01:48:08.758Z,9.60
2019-04-20T01:50:52.109Z,9.97
2019-04-20T01:53:23.656Z,9.83
2019-04-20T01:56:05.394Z,10.57
2019-04-20T01:58:39.846Z,9.07
2019-04-20T02:01:37.478Z,10.77
2019-04-20T02:04:16.919Z,10.97
2019-04-20T02:06:50.016Z,11.23
2019-04-20T02:09:20.291Z,10.30
2019-04-20T02:11:49.772Z,9.67
2019-04-20T02:14:27.333Z,9.80
2019-04-20T02:17:02.995Z,10.07
2019-04-20T02:19:35.706Z,10.33
2019-04-20T02:22:07.637Z,11.43
2019-04-20T02:24:27.918Z,9.67
2019-04-20T02:26:59.783Z,9.47
2019-04-20T02:29:50.746Z,11.97
2019-04-20T02:32:33.959Z,11.10
2019-04-20T02:35:34.639Z,10.10
2019-04-20T02:38:10.433Z,14.87
2019-04-20T02:40:47.453Z,12.13
2019-04-20T02:43:15.199Z,12.37
2019-04-20T02:48:13.937Z,10.70
2019-04-20T02:50:49.586Z,10.27
2019-04-20T02:53:38.064Z,9.70
2019-04-20T02:55:58.554Z,11.03
2019-04-20T02:58:23.973Z,10.40
2019-04-20T03:00:58.672Z,11.83
2019-04-20T03:03:11.247Z,10.07
2019-04-20T03:05:42.295Z,12.47
2019-04-20T03:08:22.253Z,10.73
2019-04-20T03:11:06.490Z,9.70
2019-04-20T03:13:25.452Z,11.53
2019-04-20T03:16:00.139Z,10.23
2019-04-20T03:18:32.355Z,11.40
2019-04-20T03:21:08.391Z,10.87
2019-04-20T03:23:44.460Z,10.30
2019-04-20T03:26:19.422Z,11.67
2019-04-20T03:29:03.906Z,12.63
2019-04-20T03:32:19.478Z,12.20
2019-04-20T03:36:53.153Z,14.33
2019-04-20T03:39:19.766Z,10.67
2019-04-20T03:41:39.853Z,11.83
2019-04-20T03:44:09.985Z,10.97
2019-04-20T03:46:43.463Z,9.73
2019-04-20T03:49:35.254Z,7.03
2019-04-20T03:52:02.498Z,7.87
2019-04-20T03:54:30.845Z,7.27
2019-04-20T03:57:26.613Z,7.63
2019-04-20T04:00:05.129Z,9.43
2019-04-20T04:05:31.075Z,9.73
2019-04-20T04:07:58.014Z,9.17
2019-04-20T04:10:31.446Z,9.07
2019-04-20T04:13:14.793Z,9.57
2019-04-20T04:15:51.955Z,10.03
2019-04-20T04:18:26.093Z,8.90
2019-04-20T04:20:59.077Z,9.97
2019-04-20T04:23:40.648Z,9.77
2019-04-20T04:26:12.852Z,9.37
2019-04-20T04:28:43.351Z,10.13
2019-04-20T04:31:18.720Z,8.73
2019-04-20T04:33:55.757Z,12.03
2019-04-20T04:36:17.699Z,10.23
2019-04-20T04:38:59.844Z,12.47
2019-04-20T04:41:32.260Z,10.57
2019-04-20T04:43:58.762Z,9.00
2019-04-20T04:46:12.425Z,10.27
2019-04-20T04:48:46.424Z,12.10
2019-04-20T04:51:22.267Z,10.30
2019-04-20T04:53:55.179Z,12.13
2019-04-20T04:56:24.920Z,11.30
2019-04-20T04:58:54.264Z,12.43
2019-04-20T05:01:28.589Z,10.77
2019-04-20T05:06:45.191Z,10.93
2019-04-20T05:09:05.210Z,13.43
2019-04-20T05:11:34.962Z,10.70
2019-04-20T05:14:10.936Z,10.30
2019-04-20T05:16:55.190Z,10.87
2019-04-20T05:19:31.199Z,10.77
2019-04-20T05:22:29.464Z,13.23
2019-04-20T05:24:42.686Z,11.00
2019-04-20T05:27:56.358Z,11.97
2019-04-20T05:30:10.142Z,11.03
2019-04-20T05:32:50.901Z,9.67
2019-04-20T05:35:31.526Z,8.67
2019-04-20T05:38:12.115Z,11.07
2019-04-20T05:40:38.958Z,11.93
2019-04-20T05:43:27.290Z,10.10
2019-04-20T05:45:58.768Z,10.70
2019-04-20T05:48:33.568Z,8.97
2019-04-20T05:51:01.980Z,8.73
2019-04-20T05:53:42.563Z,9.03
2019-04-20T05:56:10.280Z,10.43
2019-04-20T05:58:47.572Z,10.20
2019-04-20T06:01:12.263Z,11.57
2019-04-20T06:03:45.438Z,11.07
2019-04-20T06:06:22.040Z,8.63
2019-04-20T06:09:00.110Z,9.60
2019-04-20T06:11:28.253Z,10.43
2019-04-20T06:14:03.753Z,9.27
2019-04-20T06:17:04.867Z,8.93
2019-04-20T06:19:35.865Z,9.67
2019-04-20T06:22:29.717Z,11.00
2019-04-20T06:25:23.542Z,9.97
2019-04-20T06:27:39.886Z,9.33
2019-04-20T06:30:05.892Z,8.83
2019-04-20T06:33:28.577Z,8.30
2019-04-20T06:36:08.833Z,9.40
2019-04-20T06:38:44.299Z,7.63
2019-04-20T06:41:07.596Z,8.70
2019-04-20T06:43:38.381Z,7.90
2019-04-20T06:46:05.694Z,8.90
2019-04-20T06:48:40.472Z,9.10
2019-04-20T06:51:01.671Z,8.60
2019-04-20T06:53:45.319Z,9.93
2019-04-20T06:56:35.796Z,8.57
2019-04-20T06:59:17.500Z,8.27
2019-04-20T07:01:48.975Z,7.93
2019-04-20T07:04:33.565Z,8.17
2019-04-20T07:06:51.447Z,7.83
2019-04-20T07:09:26.255Z,6.90
2019-04-20T07:11:46.464Z,8.47
2019-04-20T07:14:07.784Z,9.03
2019-04-20T07:16:59.705Z,8.73
2019-04-20T07:19:34.167Z,9.03
2019-04-20T07:22:29.186Z,7.83
2019-04-20T07:24:52.058Z,9.00
2019-04-20T07:27:17.895Z,8.43
2019-04-20T07:29:58.939Z,8.00
2019-04-20T07:32:17.744Z,9.23
2019-04-20T07:34:58.565Z,10.67
2019-04-20T07:40:06.189Z,6.80
2019-04-20T07:42:43.818Z,6.13
2019-04-20T07:45:17.644Z,7.97
2019-04-20T07:50:09.039Z,8.07
2019-04-20T07:52:36.713Z,7.80
2019-04-20T07:55:33.334Z,8.10
2019-04-20T07:57:46.014Z,7.17
2019-04-20T08:00:27.813Z,7.57
2019-04-20T08:03:20.185Z,7.33
2019-04-20T08:05:42.798Z,6.87
2019-04-20T08:08:17.921Z,8.07
2019-04-20T08:10:51.653Z,5.67
2019-04-20T08:13:32.967Z,7.60
2019-04-20T08:16:00.752Z,6.47
2019-04-20T08:18:32.207Z,7.53
2019-04-20T08:21:06.384Z,7.43
2019-04-20T08:23:33.530Z,9.03
2019-04-20T08:25:56.969Z,7.10
2019-04-20T08:28:33.371Z,7.70
2019-04-20T08:31:33.485Z,8.17
2019-04-20T08:34:20.258Z,6.17
2019-04-20T08:36:49.189Z,6.60
2019-04-20T08:39:32.444Z,6.03
2019-04-20T08:41:57.556Z,9.67
2019-04-20T08:44:42.842Z,16.07
2019-04-20T08:47:06.169Z,10.07
2019-04-20T08:49:29.497Z,10.90
2019-04-20T08:54:26.438Z,12.37
2019-04-20T08:56:48.868Z,10.53
2019-04-20T08:59:15.015Z,29.00
2019-04-20T09:01:46.698Z,11.43
2019-04-20T09:04:24.313Z,10.73
2019-04-20T09:07:01.012Z,14.83
2019-04-20T09:12:11.885Z,19.40
2019-04-20T09:14:28.049Z,22.43
2019-04-20T09:17:14.108Z,12.90
2019-04-20T09:19:52.849Z,11.50
2019-04-20T09:22:40.268Z,9.30
2019-04-20T09:27:45.187Z,13.30
2019-04-20T09:30:25.776Z,7.50
2019-04-20T09:33:09.881Z,7.70
2019-04-20T09:35:39.005Z,7.50
2019-04-20T09:38:11.275Z,7.60
2019-04-20T09:40:44.913Z,7.63
2019-04-20T09:43:28.478Z,6.37
2019-04-20T09:46:04.947Z,7.73
2019-04-20T09:48:38.752Z,7.63
2019-04-20T09:51:27.037Z,7.47
2019-04-20T09:53:47.517Z,5.67
2019-04-20T09:56:24.015Z,7.53
2019-04-20T09:59:01.111Z,6.27
2019-04-20T10:01:22.698Z,8.37
2019-04-20T10:03:43.263Z,7.10
2019-04-20T10:06:13.871Z,6.80
2019-04-20T10:08:50.769Z,7.67
2019-04-20T10:11:17.296Z,6.43
2019-04-20T10:13:48.119Z,8.20
2019-04-20T10:16:19.717Z,8.33
2019-04-20T10:18:53.223Z,6.57
2019-04-20T10:21:23.510Z,6.33
2019-04-20T10:23:54.604Z,7.77
2019-04-20T10:26:25.154Z,8.53
2019-04-20T10:28:55.541Z,7.03
2019-04-20T10:31:26.473Z,7.80
2019-04-20T10:33:57.611Z,6.87
2019-04-20T10:36:43.772Z,7.17
2019-04-20T10:39:15.976Z,7.30
2019-04-20T10:41:51.152Z,6.63
2019-04-20T10:44:19.237Z,8.17
2019-04-20T10:46:51.074Z,5.97
2019-04-20T10:49:22.634Z,8.70
2019-04-20T10:51:53.595Z,8.80
2019-04-20T10:54:24.647Z,7.03
2019-04-20T10:56:55.494Z,7.47
2019-04-20T10:59:25.938Z,5.80
2019-04-20T11:01:56.462Z,8.00
2019-04-20T11:04:26.934Z,6.67
2019-04-20T11:06:58.644Z,7.37
2019-04-20T11:09:29.159Z,6.30
2019-04-20T11:11:59.622Z,6.23
2019-04-20T11:14:34.818Z,6.60
2019-04-20T11:17:02.587Z,9.90
2019-04-20T11:19:33.598Z,7.07
2019-04-20T11:22:04.437Z,6.97
2019-04-20T11:24:34.870Z,8.80
2019-04-20T11:27:05.325Z,6.53
2019-04-20T11:29:36.058Z,6.33
2019-04-20T11:32:07.275Z,7.20
2019-04-20T11:34:39.909Z,10.00
2019-04-20T11:37:11.029Z,7.60
2019-04-20T11:39:41.479Z,6.73
2019-04-20T11:42:11.936Z,5.73
2019-04-20T11:44:42.518Z,7.87
2019-04-20T11:47:13.007Z,6.37
2019-04-20T11:49:43.721Z,8.43
2019-04-20T11:52:16.867Z,6.57
2019-04-20T11:54:46.406Z,7.37
2019-04-20T11:57:17.431Z,6.37
2019-04-20T11:59:48.427Z,5.87
2019-04-20T12:02:53.849Z,6.77
2019-04-20T12:05:34.705Z,7.53
2019-04-20T12:08:00.864Z,6.47
2019-04-20T12:10:33.055Z,7.03
2019-04-20T12:13:03.824Z,6.50
2019-04-20T12:15:36.780Z,7.80
2019-04-20T12:18:07.484Z,8.70
2019-04-20T12:20:38.952Z,6.53
2019-04-20T12:23:10.555Z,7.17
2019-04-20T12:25:44.297Z,6.63
2019-04-20T12:28:13.874Z,5.97
2019-04-20T12:30:46.029Z,6.57
2019-04-20T12:33:17.696Z,7.10
2019-04-20T12:35:48.178Z,6.23
2019-04-20T12:38:19.109Z,6.03
2019-04-20T12:40:50.318Z,5.50
2019-04-20T12:43:20.703Z,6.10
2019-04-20T12:45:51.736Z,8.47
2019-04-20T12:48:22.216Z,6.17
2019-04-20T12:50:53.304Z,5.60
2019-04-20T12:53:24.557Z,5.27
2019-04-20T12:55:54.906Z,8.63
2019-04-20T12:58:26.311Z,6.90
2019-04-20T13:00:58.250Z,5.07
2019-04-20T13:03:29.768Z,6.47
2019-04-20T13:06:01.683Z,6.17
2019-04-20T13:08:37.992Z,5.53
2019-04-20T13:11:10.809Z,6.10
2019-04-20T13:13:59.466Z,5.80
2019-04-20T13:16:34.371Z,5.33
2019-04-20T13:19:05.685Z,7.30
2019-04-20T13:21:36.824Z,6.80
2019-04-20T13:24:07.160Z,5.67
2019-04-20T13:26:37.611Z,7.97
2019-04-20T13:29:08.754Z,7.00
2019-04-20T13:31:39.977Z,6.97
2019-04-20T13:34:10.490Z,6.93
2019-04-20T13:36:41.893Z,6.53
2019-04-20T13:39:12.514Z,29.23
2019-04-20T13:41:42.855Z,9.50
2019-04-20T13:44:13.750Z,6.33
2019-04-20T13:46:45.047Z,6.33
2019-04-20T13:49:15.438Z,5.73
2019-04-20T13:51:46.576Z,5.50
2019-04-20T13:54:21.091Z,6.60
2019-04-20T13:56:50.362Z,4.57
2019-04-20T13:59:32.054Z,5.63
2019-04-20T14:02:08.829Z,6.17
2019-04-20T14:04:52.814Z,5.50
2019-04-20T14:07:24.499Z,4.90
2019-04-20T14:09:55.352Z,5.70
2019-04-20T14:12:33.354Z,5.13
2019-04-20T14:14:59.366Z,6.30
2019-04-20T14:17:30.881Z,8.00
2019-04-20T14:20:07.411Z,6.40
2019-04-20T14:22:33.411Z,6.80
2019-04-20T14:25:04.944Z,5.10
2019-04-20T14:27:37.008Z,7.00
2019-04-20T14:30:08.897Z,7.73
2019-04-20T14:32:39.350Z,6.63
2019-04-20T14:35:11.233Z,4.93
2019-04-20T14:37:41.803Z,7.60
2019-04-20T14:40:12.636Z,5.80
2019-04-20T14:42:49.482Z,5.17
2019-04-20T14:45:16.798Z,5.67
2019-04-20T14:47:47.839Z,5.13
2019-04-20T14:50:20.112Z,5.37
2019-04-20T14:52:51.509Z,6.03
2019-04-20T14:55:22.609Z,6.00
2019-04-20T14:57:55.304Z,6.73
2019-04-20T15:00:55.354Z,7.07
2019-04-20T15:03:36.748Z,5.83
2019-04-20T15:06:05.547Z,4.33
2019-04-20T15:08:36.795Z,5.53
2019-04-20T15:11:07.467Z,6.37
2019-04-20T15:13:38.616Z,5.87
2019-04-20T15:16:09.106Z,5.13
2019-04-20T15:18:51.853Z,5.60
2019-04-20T15:21:23.774Z,6.33
2019-04-20T15:23:55.336Z,7.20
2019-04-20T15:26:26.547Z,7.93
2019-04-20T15:28:57.072Z,7.30
2019-04-20T15:31:28.213Z,6.07
2019-04-20T15:33:59.117Z,7.40
2019-04-20T15:36:29.575Z,7.13
2019-04-20T15:39:01.094Z,5.97
2019-04-20T15:41:31.591Z,5.70
2019-04-20T15:44:01.934Z,9.13
2019-04-20T15:46:33.514Z,7.50
2019-04-20T15:49:04.373Z,9.17
2019-04-20T15:51:34.807Z,6.93
2019-04-20T15:54:05.362Z,8.07
2019-04-20T15:56:35.819Z,7.23
2019-04-20T15:59:06.436Z,6.90
2019-04-20T16:01:45.074Z,6.90
2019-04-20T16:04:37.551Z,8.00
2019-04-20T16:07:05.428Z,7.30
2019-04-20T16:09:36.036Z,7.70
2019-04-20T16:12:06.911Z,7.83
2019-04-20T16:14:37.692Z,7.03
2019-04-20T16:17:10.438Z,8.87
2019-04-20T16:19:50.649Z,9.27
2019-04-20T16:22:12.191Z,12.03
2019-04-20T16:24:48.958Z,8.97
2019-04-20T16:27:38.342Z,7.97
2019-04-20T16:30:09.948Z,12.30
2019-04-20T16:32:40.661Z,11.17
2019-04-20T16:35:11.214Z,9.40
2019-04-20T16:37:42.434Z,9.00
2019-04-20T16:40:13.804Z,9.63
2019-04-20T16:42:45.467Z,10.07
2019-04-20T16:45:17.215Z,8.17
2019-04-20T16:47:48.205Z,8.53
2019-04-20T16:50:19.339Z,8.00
2019-04-20T16:52:50.812Z,11.87
2019-04-20T16:55:22.870Z,14.87
2019-04-20T16:57:53.340Z,12.17
2019-04-20T17:00:25.316Z,9.37
2019-04-20T17:02:56.278Z,15.73
2019-04-20T17:05:27.524Z,14.97
2019-04-20T17:07:58.334Z,16.37
2019-04-20T17:10:28.964Z,13.67
2019-04-20T17:12:59.890Z,19.33
2019-04-20T17:15:31.708Z,20.27
2019-04-20T17:18:03.358Z,19.00
2019-04-20T17:20:34.677Z,20.33
2019-04-20T17:23:07.378Z,24.10
2019-04-20T17:25:37.890Z,23.90
2019-04-20T17:28:45.334Z,21.67
2019-04-20T17:31:31.560Z,21.57
2019-04-20T17:34:31.566Z,19.93
2019-04-20T17:36:46.393Z,20.03
2019-04-20T17:39:27.718Z,22.43
2019-04-20T17:42:07.658Z,51.73
2019-04-20T17:44:35.907Z,41.77
2019-04-20T17:47:04.113Z,47.03
2019-04-20T17:49:36.858Z,60.23
2019-04-20T17:52:17.598Z,60.47
2019-04-20T17:54:36.003Z,115.27
2019-04-20T17:57:09.147Z,123.70
2019-04-20T17:59:47.258Z,112.60
2019-04-20T18:02:49.349Z,61.53
2019-04-20T18:05:46.580Z,65.93
2019-04-20T18:08:22.372Z,98.23
2019-04-20T18:10:48.683Z,147.87
2019-04-20T18:13:12.093Z,187.13
2019-04-20T18:15:48.763Z,215.87
2019-04-20T18:18:40.888Z,100.03
2019-04-20T18:21:15.239Z,62.17
2019-04-20T18:23:48.582Z,59.50
2019-04-20T18:26:40.944Z,106.33
2019-04-20T18:29:10.714Z,76.53
2019-04-20T18:31:31.384Z,53.87
2019-04-20T18:34:14.518Z,55.30
2019-04-20T18:36:44.042Z,69.37
2019-04-20T18:39:16.247Z,54.43
2019-04-20T18:41:49.871Z,58.67
2019-04-20T18:44:21.084Z,66.40
2019-04-20T18:47:13.100Z,70.80
2019-04-20T18:49:36.066Z,51.90
2019-04-20T18:51:53.697Z,48.00
2019-04-20T18:54:28.848Z,73.43
2019-04-20T18:56:57.997Z,70.97
2019-04-20T18:59:31.950Z,54.27
2019-04-20T19:02:01.178Z,57.73
2019-04-20T19:04:33.083Z,70.00
2019-04-20T19:07:03.762Z,85.60
2019-04-20T19:09:35.777Z,68.67
2019-04-20T19:12:09.826Z,71.13
2019-04-20T19:15:02.409Z,53.67
2019-04-20T19:18:05.725Z,62.97
2019-04-20T19:20:35.085Z,58.50
2019-04-20T19:23:06.262Z,69.00
2019-04-20T19:25:40.614Z,79.60
2019-04-20T19:28:10.370Z,54.57
2019-04-20T19:30:50.201Z,54.17
2019-04-20T19:33:27.677Z,60.10
2019-04-20T19:35:53.023Z,117.67
2019-04-20T19:38:23.914Z,108.87
2019-04-20T19:40:58.354Z,58.13
2019-04-20T19:43:30.548Z,70.53
2019-04-20T19:46:35.414Z,49.87
2019-04-20T19:48:39.607Z,62.73
2019-04-20T19:51:17.618Z,138.83
2019-04-20T19:53:51.034Z,80.63
2019-04-20T19:56:17.088Z,94.77
2019-04-20T19:58:51.547Z,95.90
2019-04-20T20:01:06.785Z,73.97
2019-04-20T20:03:37.892Z,81.80
2019-04-20T20:06:20.537Z,94.27
2019-04-20T20:08:50.334Z,79.33
2019-04-20T20:11:21.828Z,82.57
2019-04-20T20:13:51.710Z,81.67
2019-04-20T20:16:30.318Z,64.07
2019-04-20T20:19:03.908Z,53.37
2019-04-20T20:21:35.253Z,62.50
2019-04-20T20:23:56.414Z,57.17
2019-04-20T20:26:33.506Z,55.10
2019-04-20T20:29:09.555Z,63.23
2019-04-20T20:31:48.566Z,63.50
2019-04-20T20:34:14.375Z,79.83
2019-04-20T20:36:44.030Z,71.27
2019-04-20T20:39:19.662Z,60.13
2019-04-20T20:41:53.290Z,58.07
2019-04-20T20:44:26.551Z,59.97
2019-04-20T20:46:55.087Z,82.77
2019-04-20T20:49:37.163Z,197.40
2019-04-20T20:52:10.159Z,70.30
2019-04-20T20:54:33.678Z,62.63
2019-04-20T20:57:01.441Z,51.57
2019-04-20T20:59:34.553Z,51.30
2019-04-20T21:02:06.728Z,55.10
2019-04-20T21:04:30.044Z,57.87
2019-04-20T21:07:00.648Z,53.40
2019-04-20T21:09:31.332Z,51.67
2019-04-20T21:12:08.136Z,54.20
2019-04-20T21:14:37.107Z,52.67
2019-04-20T21:17:14.090Z,47.97
2019-04-20T21:19:57.992Z,47.47
2019-04-20T21:22:17.329Z,66.03
2019-04-20T21:24:48.403Z,62.47
2019-04-20T21:27:21.861Z,46.33
2019-04-20T21:29:54.431Z,45.27
2019-04-20T21:32:23.708Z,42.70
2019-04-20T21:35:02.657Z,42.03
2019-04-20T21:37:27.284Z,47.10
2019-04-20T21:40:03.091Z,41.27
2019-04-20T21:42:40.774Z,39.10
2019-04-20T21:45:10.546Z,42.40
2019-04-20T21:47:39.278Z,38.27
2019-04-20T21:50:24.462Z,39.63
2019-04-20T21:52:45.110Z,47.27
2019-04-20T21:55:12.191Z,52.97
2019-04-20T21:57:50.143Z,50.07
2019-04-20T22:00:40.872Z,44.60
2019-04-20T22:03:09.846Z,49.97
2019-04-20T22:05:40.102Z,39.47
2019-04-20T22:08:13.991Z,40.23
2019-04-20T22:10:43.047Z,43.63
2019-04-20T22:13:19.382Z,48.33
2019-04-20T22:15:55.724Z,55.70
2019-04-20T22:18:23.338Z,51.70
2019-04-20T22:21:03.581Z,39.30
2019-04-20T22:23:43.398Z,64.90
2019-04-20T22:26:08.559Z,63.87
2019-04-20T22:28:27.239Z,47.07
2019-04-20T22:30:58.020Z,39.77
2019-04-20T22:33:37.113Z,35.90
2019-04-20T22:36:09.127Z,38.47
2019-04-20T22:39:07.457Z,39.83
2019-04-20T22:41:46.676Z,47.43
2019-04-20T22:44:20.265Z,49.07
2019-04-20T22:46:47.631Z,49.53
2019-04-20T22:49:38.828Z,56.10
2019-04-20T22:51:58.225Z,54.40
2019-04-20T22:54:36.451Z,41.30
2019-04-20T22:57:03.076Z,35.07
2019-04-20T22:59:38.448Z,47.80
2019-04-20T23:02:01.186Z,50.57
2019-04-20T23:04:30.900Z,36.70
2019-04-20T23:07:03.007Z,31.27
2019-04-20T23:09:42.723Z,41.73
2019-04-20T23:12:10.090Z,42.70
2019-04-20T23:14:38.352Z,39.30
2019-04-20T23:17:10.289Z,46.17
2019-04-20T23:19:48.553Z,49.13
2019-04-20T23:22:15.308Z,53.70
2019-04-20T23:24:44.991Z,50.43
2019-04-20T23:27:19.826Z,60.10
2019-04-20T23:29:47.393Z,75.07
2019-04-20T23:32:19.491Z,45.27
2019-04-20T23:34:57.712Z,48.00
2019-04-20T23:37:28.276Z,40.57
2019-04-20T23:39:54.823Z,34.70
2019-04-20T23:42:33.597Z,35.03
2019-04-20T23:45:26.529Z,34.03
2019-04-20T23:48:01.342Z,26.50
2019-04-20T23:50:49.002Z,30.60
2019-04-20T23:53:19.631Z,25.60
2019-04-20T23:55:33.957Z,27.17
2019-04-20T23:58:06.924Z,54.03
